createdAt,value
2022-08-17T09:32:16.515Z,11408.00
2022-08-17T09:33:16.489Z,11564.00
2022-08-17T09:34:16.485Z,11804.00
2022-08-17T09:35:16.471Z,12272.00
2022-08-17T09:36:16.485Z,11792.00
2022-08-17T09:37:16.435Z,11356.00
2022-08-17T09:38:16.431Z,11136.00
2022-08-17T09:39:16.436Z,10820.00
2022-08-17T09:40:16.449Z,10568.00
2022-08-17T09:41:16.396Z,10456.00
2022-08-17T09:42:16.378Z,10556.00
2022-08-17T09:43:16.366Z,10792.00
2022-08-17T09:44:22.910Z,11116.00
2022-08-17T09:45:17.326Z,11436.00
2022-08-17T09:46:16.359Z,11696.00
2022-08-17T09:47:16.307Z,11876.00
2022-08-17T09:48:18.108Z,11896.00
2022-08-17T09:49:16.283Z,11776.00
2022-08-17T09:50:16.337Z,11608.00
2022-08-17T09:51:16.282Z,11424.00
2022-08-17T09:52:16.246Z,11344.00
2022-08-17T09:53:16.226Z,11372.00
2022-08-17T09:54:37.973Z,10952.00
2022-08-17T09:55:17.206Z,10308.00
2022-08-17T09:56:16.208Z,9964.00
2022-08-17T09:57:29.796Z,9636.00
2022-08-17T09:58:17.177Z,9376.00
2022-08-17T09:59:16.160Z,9240.00
2022-08-17T10:00:16.558Z,9052.00
2022-08-17T10:01:16.189Z,8620.00
2022-08-17T10:02:16.138Z,8084.00
2022-08-17T10:03:16.119Z,7616.00
2022-08-17T10:04:18.778Z,7212.00
2022-08-17T10:05:16.107Z,6864.00
2022-08-17T10:06:21.771Z,6596.00
2022-08-17T10:07:17.049Z,6388.00
2022-08-17T10:08:16.041Z,6236.00
2022-08-17T10:09:16.028Z,6084.00
2022-08-17T10:10:16.026Z,5956.00
2022-08-17T10:11:16.039Z,5884.00
2022-08-17T10:12:17.362Z,5896.00
2022-08-17T10:13:15.979Z,5948.00
2022-08-17T10:14:37.412Z,6024.00
2022-08-17T10:15:17.469Z,6136.00
2022-08-17T10:16:15.950Z,6304.00
2022-08-17T10:17:15.920Z,6464.00
2022-08-17T10:18:15.911Z,6616.00
2022-08-17T10:19:15.900Z,6788.00
2022-08-17T10:20:15.918Z,6960.00
2022-08-17T10:21:15.909Z,7100.00
2022-08-17T10:22:35.150Z,7128.00
2022-08-17T10:23:16.842Z,7080.00
2022-08-17T10:24:15.840Z,7040.00
2022-08-17T10:25:21.857Z,7044.00
2022-08-17T10:26:16.824Z,7152.00
2022-08-17T10:27:15.815Z,7344.00
2022-08-17T10:28:19.941Z,7556.00
2022-08-17T10:29:15.769Z,7732.00
2022-08-17T10:30:15.762Z,7920.00
2022-08-17T10:31:34.249Z,8056.00
2022-08-17T10:32:16.731Z,8160.00
2022-08-17T10:33:15.726Z,8244.00
2022-08-17T10:34:15.702Z,8288.00
2022-08-17T10:35:15.689Z,8272.00
2022-08-17T10:36:15.714Z,8208.00
2022-08-17T10:37:15.682Z,8152.00
2022-08-17T10:38:15.672Z,8108.00
2022-08-17T10:39:15.642Z,8104.00
2022-08-17T10:40:15.792Z,8124.00
2022-08-17T10:41:15.611Z,8124.00
2022-08-17T10:42:15.668Z,8108.00
2022-08-17T10:43:16.582Z,8128.00
